sensor_id;sensor_type;location;lat;lon;timestamp;P1;durP1;ratioP1;P2;durP2;ratioP2
19036;SDS011;9651;49.138;8.900;2023-03-22T00:00:16;6.67;;;5.37;;
19036;SDS011;9651;49.138;8.900;2023-03-22T00:04:19;6.83;;;4.90;;
19036;SDS011;9651;49.138;8.900;2023-03-22T00:08:20;8.27;;;4.87;;
19036;SDS011;9651;49.138;8.900;2023-03-22T00:12:24;6.90;;;5.03;;
19036;SDS011;9651;49.138;8.900;2023-03-22T00:16:25;6.67;;;4.70;;
19036;SDS011;9651;49.138;8.900;2023-03-22T00:20:27;6.97;;;5.03;;
19036;SDS011;9651;49.138;8.900;2023-03-22T00:24:30;7.17;;;5.50;;
19036;SDS011;9651;49.138;8.900;2023-03-22T00:28:34;10.57;;;5.80;;
19036;SDS011;9651;49.138;8.900;2023-03-22T00:32:36;6.90;;;5.30;;
19036;SDS011;9651;49.138;8.900;2023-03-22T00:36:38;8.13;;;5.73;;
19036;SDS011;9651;49.138;8.900;2023-03-22T00:40:40;6.87;;;4.53;;
19036;SDS011;9651;49.138;8.900;2023-03-22T00:44:43;5.57;;;4.37;;
19036;SDS011;9651;49.138;8.900;2023-03-22T00:48:45;7.33;;;4.40;;
19036;SDS011;9651;49.138;8.900;2023-03-22T00:52:47;6.30;;;4.70;;
19036;SDS011;9651;49.138;8.900;2023-03-22T00:56:49;7.43;;;4.33;;
19036;SDS011;9651;49.138;8.900;2023-03-22T01:00:52;7.03;;;4.80;;
19036;SDS011;9651;49.138;8.900;2023-03-22T01:04:54;8.80;;;4.40;;
19036;SDS011;9651;49.138;8.900;2023-03-22T01:08:57;7.70;;;4.20;;
19036;SDS011;9651;49.138;8.900;2023-03-22T01:12:58;6.70;;;4.30;;
19036;SDS011;9651;49.138;8.900;2023-03-22T01:17:02;8.50;;;4.80;;
19036;SDS011;9651;49.138;8.900;2023-03-22T01:21:04;6.27;;;4.73;;
19036;SDS011;9651;49.138;8.900;2023-03-22T01:25:07;6.13;;;4.87;;
19036;SDS011;9651;49.138;8.900;2023-03-22T01:29:10;6.63;;;4.47;;
19036;SDS011;9651;49.138;8.900;2023-03-22T01:33:13;7.70;;;4.90;;
19036;SDS011;9651;49.138;8.900;2023-03-22T01:37:15;5.93;;;4.53;;
19036;SDS011;9651;49.138;8.900;2023-03-22T01:41:19;6.43;;;4.60;;
19036;SDS011;9651;49.138;8.900;2023-03-22T01:45:31;6.47;;;4.73;;
19036;SDS011;9651;49.138;8.900;2023-03-22T01:49:37;7.57;;;5.03;;
19036;SDS011;9651;49.138;8.900;2023-03-22T01:53:42;9.37;;;5.80;;
19036;SDS011;9651;49.138;8.900;2023-03-22T01:57:48;7.47;;;5.73;;
19036;SDS011;9651;49.138;8.900;2023-03-22T02:02:00;6.67;;;5.40;;
19036;SDS011;9651;49.138;8.900;2023-03-22T02:06:04;7.77;;;4.93;;
19036;SDS011;9651;49.138;8.900;2023-03-22T02:10:08;8.53;;;5.47;;
19036;SDS011;9651;49.138;8.900;2023-03-22T02:14:27;6.87;;;5.37;;
19036;SDS011;9651;49.138;8.900;2023-03-22T02:18:47;8.43;;;5.27;;
19036;SDS011;9651;49.138;8.900;2023-03-22T02:23:03;8.03;;;5.23;;
19036;SDS011;9651;49.138;8.900;2023-03-22T02:27:47;6.10;;;4.93;;
19036;SDS011;9651;49.138;8.900;2023-03-22T02:32:08;8.13;;;5.27;;
19036;SDS011;9651;49.138;8.900;2023-03-22T02:36:25;8.67;;;5.13;;
19036;SDS011;9651;49.138;8.900;2023-03-22T02:40:43;8.70;;;5.73;;
19036;SDS011;9651;49.138;8.900;2023-03-22T02:44:53;7.93;;;5.10;;
19036;SDS011;9651;49.138;8.900;2023-03-22T02:49:00;8.27;;;5.43;;
19036;SDS011;9651;49.138;8.900;2023-03-22T02:53:09;6.50;;;4.87;;
19036;SDS011;9651;49.138;8.900;2023-03-22T02:57:17;6.30;;;4.40;;
19036;SDS011;9651;49.138;8.900;2023-03-22T03:01:29;6.73;;;4.67;;
19036;SDS011;9651;49.138;8.900;2023-03-22T03:05:36;9.03;;;5.53;;
19036;SDS011;9651;49.138;8.900;2023-03-22T03:09:41;7.27;;;5.10;;
19036;SDS011;9651;49.138;8.900;2023-03-22T03:13:47;6.97;;;4.53;;
19036;SDS011;9651;49.138;8.900;2023-03-22T03:17:52;6.77;;;4.53;;
19036;SDS011;9651;49.138;8.900;2023-03-22T03:22:08;5.30;;;4.37;;
19036;SDS011;9651;49.138;8.900;2023-03-22T03:26:26;8.27;;;4.70;;
19036;SDS011;9651;49.138;8.900;2023-03-22T03:30:36;5.80;;;4.73;;
19036;SDS011;9651;49.138;8.900;2023-03-22T03:34:41;7.17;;;4.93;;
19036;SDS011;9651;49.138;8.900;2023-03-22T03:38:48;7.93;;;4.90;;
19036;SDS011;9651;49.138;8.900;2023-03-22T03:42:53;6.50;;;5.27;;
19036;SDS011;9651;49.138;8.900;2023-03-22T03:46:58;6.63;;;5.43;;
19036;SDS011;9651;49.138;8.900;2023-03-22T03:51:01;5.63;;;5.10;;
19036;SDS011;9651;49.138;8.900;2023-03-22T03:55:04;5.67;;;5.07;;
19036;SDS011;9651;49.138;8.900;2023-03-22T03:59:08;6.07;;;4.93;;
19036;SDS011;9651;49.138;8.900;2023-03-22T04:03:13;5.57;;;4.87;;
19036;SDS011;9651;49.138;8.900;2023-03-22T04:07:50;9.73;;;5.30;;
19036;SDS011;9651;49.138;8.900;2023-03-22T04:11:52;6.10;;;5.20;;
19036;SDS011;9651;49.138;8.900;2023-03-22T04:15:55;7.73;;;5.33;;
19036;SDS011;9651;49.138;8.900;2023-03-22T04:20:03;6.90;;;5.50;;
19036;SDS011;9651;49.138;8.900;2023-03-22T04:24:09;8.20;;;5.37;;
19036;SDS011;9651;49.138;8.900;2023-03-22T04:28:15;5.63;;;4.70;;
19036;SDS011;9651;49.138;8.900;2023-03-22T04:32:20;7.50;;;5.37;;
19036;SDS011;9651;49.138;8.900;2023-03-22T04:36:26;8.97;;;5.77;;
19036;SDS011;9651;49.138;8.900;2023-03-22T04:41:02;7.77;;;5.37;;
19036;SDS011;9651;49.138;8.900;2023-03-22T04:45:11;8.97;;;5.47;;
19036;SDS011;9651;49.138;8.900;2023-03-22T04:49:16;6.47;;;5.40;;
19036;SDS011;9651;49.138;8.900;2023-03-22T04:53:19;8.60;;;5.60;;
19036;SDS011;9651;49.138;8.900;2023-03-22T04:57:26;6.13;;;4.97;;
19036;SDS011;9651;49.138;8.900;2023-03-22T05:01:29;7.87;;;5.80;;
19036;SDS011;9651;49.138;8.900;2023-03-22T05:05:48;6.70;;;5.13;;
19036;SDS011;9651;49.138;8.900;2023-03-22T05:09:53;6.73;;;5.43;;
19036;SDS011;9651;49.138;8.900;2023-03-22T05:13:56;7.27;;;5.20;;
19036;SDS011;9651;49.138;8.900;2023-03-22T05:17:59;7.07;;;5.50;;
19036;SDS011;9651;49.138;8.900;2023-03-22T05:22:01;8.97;;;5.23;;
19036;SDS011;9651;49.138;8.900;2023-03-22T05:26:25;6.37;;;4.60;;
19036;SDS011;9651;49.138;8.900;2023-03-22T05:30:29;9.47;;;4.97;;
19036;SDS011;9651;49.138;8.900;2023-03-22T05:34:39;6.50;;;4.97;;
19036;SDS011;9651;49.138;8.900;2023-03-22T05:38:54;6.77;;;4.90;;
19036;SDS011;9651;49.138;8.900;2023-03-22T05:42:58;7.43;;;5.53;;
19036;SDS011;9651;49.138;8.900;2023-03-22T05:47:01;5.53;;;4.93;;
19036;SDS011;9651;49.138;8.900;2023-03-22T05:51:08;7.13;;;5.33;;
19036;SDS011;9651;49.138;8.900;2023-03-22T05:55:13;7.43;;;5.30;;
19036;SDS011;9651;49.138;8.900;2023-03-22T05:59:19;7.10;;;4.67;;
19036;SDS011;9651;49.138;8.900;2023-03-22T06:03:21;6.17;;;4.73;;
19036;SDS011;9651;49.138;8.900;2023-03-22T06:07:31;6.77;;;5.33;;
19036;SDS011;9651;49.138;8.900;2023-03-22T06:11:45;7.33;;;5.07;;
19036;SDS011;9651;49.138;8.900;2023-03-22T06:15:50;7.57;;;5.03;;
19036;SDS011;9651;49.138;8.900;2023-03-22T06:19:56;7.63;;;6.00;;
19036;SDS011;9651;49.138;8.900;2023-03-22T06:23:58;7.93;;;4.97;;
19036;SDS011;9651;49.138;8.900;2023-03-22T06:28:00;8.27;;;6.10;;
19036;SDS011;9651;49.138;8.900;2023-03-22T06:32:05;11.73;;;6.03;;
19036;SDS011;9651;49.138;8.900;2023-03-22T06:36:07;8.33;;;5.90;;
19036;SDS011;9651;49.138;8.900;2023-03-22T06:40:20;10.80;;;6.67;;
19036;SDS011;9651;49.138;8.900;2023-03-22T06:44:22;10.20;;;7.07;;
19036;SDS011;9651;49.138;8.900;2023-03-22T06:48:25;10.57;;;7.53;;
19036;SDS011;9651;49.138;8.900;2023-03-22T06:52:35;14.37;;;7.60;;
19036;SDS011;9651;49.138;8.900;2023-03-22T06:56:38;9.70;;;7.50;;
19036;SDS011;9651;49.138;8.900;2023-03-22T07:00:40;11.43;;;8.23;;
19036;SDS011;9651;49.138;8.900;2023-03-22T07:04:45;18.23;;;10.97;;
19036;SDS011;9651;49.138;8.900;2023-03-22T07:08:47;11.30;;;6.47;;
19036;SDS011;9651;49.138;8.900;2023-03-22T07:12:52;12.23;;;9.03;;
19036;SDS011;9651;49.138;8.900;2023-03-22T07:16:54;12.03;;;8.33;;
19036;SDS011;9651;49.138;8.900;2023-03-22T07:20:59;9.43;;;6.30;;
19036;SDS011;9651;49.138;8.900;2023-03-22T07:25:01;9.97;;;6.17;;
19036;SDS011;9651;49.138;8.900;2023-03-22T07:29:06;8.30;;;4.85;;
19036;SDS011;9651;49.138;8.900;2023-03-22T07:33:08;5.85;;;4.72;;
19036;SDS011;9651;49.138;8.900;2023-03-22T07:37:12;6.15;;;4.22;;
19036;SDS011;9651;49.138;8.900;2023-03-22T07:41:15;7.53;;;4.70;;
19036;SDS011;9651;49.138;8.900;2023-03-22T07:45:40;5.57;;;4.30;;
19036;SDS011;9651;49.138;8.900;2023-03-22T07:50:00;4.32;;;3.40;;
19036;SDS011;9651;49.138;8.900;2023-03-22T07:54:07;4.00;;;2.60;;
19036;SDS011;9651;49.138;8.900;2023-03-22T07:58:08;3.15;;;2.45;;
19036;SDS011;9651;49.138;8.900;2023-03-22T08:02:10;3.75;;;3.08;;
19036;SDS011;9651;49.138;8.900;2023-03-22T08:06:19;4.38;;;2.95;;
19036;SDS011;9651;49.138;8.900;2023-03-22T08:10:22;3.78;;;2.35;;
19036;SDS011;9651;49.138;8.900;2023-03-22T08:14:24;4.03;;;2.03;;
19036;SDS011;9651;49.138;8.900;2023-03-22T08:18:26;2.17;;;1.55;;
19036;SDS011;9651;49.138;8.900;2023-03-22T08:22:28;2.05;;;1.48;;
19036;SDS011;9651;49.138;8.900;2023-03-22T08:26:50;4.30;;;1.42;;
19036;SDS011;9651;49.138;8.900;2023-03-22T08:31:08;1.65;;;1.55;;
19036;SDS011;9651;49.138;8.900;2023-03-22T08:35:11;3.90;;;1.48;;
19036;SDS011;9651;49.138;8.900;2023-03-22T08:39:15;2.80;;;1.70;;
19036;SDS011;9651;49.138;8.900;2023-03-22T08:43:32;4.72;;;1.73;;
19036;SDS011;9651;49.138;8.900;2023-03-22T08:47:34;3.70;;;1.40;;
19036;SDS011;9651;49.138;8.900;2023-03-22T08:51:38;2.17;;;1.60;;
19036;SDS011;9651;49.138;8.900;2023-03-22T08:55:49;3.72;;;1.98;;
19036;SDS011;9651;49.138;8.900;2023-03-22T09:00:14;3.50;;;1.73;;
19036;SDS011;9651;49.138;8.900;2023-03-22T09:04:25;2.45;;;1.70;;
19036;SDS011;9651;49.138;8.900;2023-03-22T09:08:27;2.00;;;1.45;;
19036;SDS011;9651;49.138;8.900;2023-03-22T09:12:37;6.28;;;1.88;;
19036;SDS011;9651;49.138;8.900;2023-03-22T09:16:40;1.60;;;1.30;;
19036;SDS011;9651;49.138;8.900;2023-03-22T09:20:43;2.00;;;1.30;;
19036;SDS011;9651;49.138;8.900;2023-03-22T09:24:47;2.67;;;1.10;;
19036;SDS011;9651;49.138;8.900;2023-03-22T09:28:49;1.15;;;1.05;;
19036;SDS011;9651;49.138;8.900;2023-03-22T09:32:53;1.25;;;1.02;;
19036;SDS011;9651;49.138;8.900;2023-03-22T09:36:55;4.25;;;1.20;;
19036;SDS011;9651;49.138;8.900;2023-03-22T09:41:01;1.98;;;1.08;;
19036;SDS011;9651;49.138;8.900;2023-03-22T09:45:10;1.50;;;1.10;;
19036;SDS011;9651;49.138;8.900;2023-03-22T09:49:17;3.05;;;1.40;;
19036;SDS011;9651;49.138;8.900;2023-03-22T09:53:22;2.88;;;1.10;;
19036;SDS011;9651;49.138;8.900;2023-03-22T09:57:28;0.95;;;0.90;;
19036;SDS011;9651;49.138;8.900;2023-03-22T10:01:34;2.13;;;1.23;;
19036;SDS011;9651;49.138;8.900;2023-03-22T10:05:45;1.98;;;0.80;;
19036;SDS011;9651;49.138;8.900;2023-03-22T10:09:54;2.78;;;0.82;;
19036;SDS011;9651;49.138;8.900;2023-03-22T10:14:08;2.80;;;0.70;;
19036;SDS011;9651;49.138;8.900;2023-03-22T10:18:23;0.80;;;0.60;;
19036;SDS011;9651;49.138;8.900;2023-03-22T10:22:31;0.70;;;0.50;;
19036;SDS011;9651;49.138;8.900;2023-03-22T10:26:37;0.80;;;0.50;;
19036;SDS011;9651;49.138;8.900;2023-03-22T10:30:41;0.70;;;0.70;;
19036;SDS011;9651;49.138;8.900;2023-03-22T10:34:50;0.60;;;0.60;;
19036;SDS011;9651;49.138;8.900;2023-03-22T10:38:55;1.38;;;0.65;;
19036;SDS011;9651;49.138;8.900;2023-03-22T10:43:05;2.35;;;0.70;;
19036;SDS011;9651;49.138;8.900;2023-03-22T10:47:13;1.05;;;0.60;;
19036;SDS011;9651;49.138;8.900;2023-03-22T10:51:19;0.80;;;0.70;;
19036;SDS011;9651;49.138;8.900;2023-03-22T10:55:27;2.10;;;0.80;;
19036;SDS011;9651;49.138;8.900;2023-03-22T10:59:43;1.02;;;0.75;;
19036;SDS011;9651;49.138;8.900;2023-03-22T11:03:48;1.17;;;0.70;;
19036;SDS011;9651;49.138;8.900;2023-03-22T11:07:51;1.35;;;0.70;;
19036;SDS011;9651;49.138;8.900;2023-03-22T11:11:56;0.65;;;0.50;;
19036;SDS011;9651;49.138;8.900;2023-03-22T11:15:59;1.13;;;0.50;;
19036;SDS011;9651;49.138;8.900;2023-03-22T11:20:03;1.90;;;0.60;;
19036;SDS011;9651;49.138;8.900;2023-03-22T11:24:09;0.70;;;0.60;;
19036;SDS011;9651;49.138;8.900;2023-03-22T11:28:16;1.00;;;0.47;;
19036;SDS011;9651;49.138;8.900;2023-03-22T11:32:21;1.90;;;0.50;;
19036;SDS011;9651;49.138;8.900;2023-03-22T11:36:27;1.35;;;0.80;;
19036;SDS011;9651;49.138;8.900;2023-03-22T11:40:30;3.95;;;0.70;;
19036;SDS011;9651;49.138;8.900;2023-03-22T11:44:35;1.63;;;0.60;;
19036;SDS011;9651;49.138;8.900;2023-03-22T11:48:38;1.70;;;0.63;;
19036;SDS011;9651;49.138;8.900;2023-03-22T11:52:45;1.45;;;0.63;;
19036;SDS011;9651;49.138;8.900;2023-03-22T11:56:48;1.00;;;0.70;;
19036;SDS011;9651;49.138;8.900;2023-03-22T12:00:52;0.90;;;0.57;;
19036;SDS011;9651;49.138;8.900;2023-03-22T12:04:56;2.03;;;0.75;;
19036;SDS011;9651;49.138;8.900;2023-03-22T12:09:02;1.35;;;0.70;;
19036;SDS011;9651;49.138;8.900;2023-03-22T12:13:09;3.53;;;0.82;;
19036;SDS011;9651;49.138;8.900;2023-03-22T12:17:19;1.88;;;1.13;;
19036;SDS011;9651;49.138;8.900;2023-03-22T12:21:27;2.55;;;0.98;;
19036;SDS011;9651;49.138;8.900;2023-03-22T12:25:30;5.22;;;1.55;;
19036;SDS011;9651;49.138;8.900;2023-03-22T12:29:35;1.77;;;0.80;;
19036;SDS011;9651;49.138;8.900;2023-03-22T12:33:42;1.15;;;0.73;;
19036;SDS011;9651;49.138;8.900;2023-03-22T12:37:45;2.25;;;0.80;;
19036;SDS011;9651;49.138;8.900;2023-03-22T12:41:51;1.23;;;0.70;;
19036;SDS011;9651;49.138;8.900;2023-03-22T12:45:58;1.70;;;1.05;;
19036;SDS011;9651;49.138;8.900;2023-03-22T12:50:04;2.45;;;1.02;;
19036;SDS011;9651;49.138;8.900;2023-03-22T12:54:12;1.10;;;0.75;;
19036;SDS011;9651;49.138;8.900;2023-03-22T12:58:19;0.90;;;0.70;;
19036;SDS011;9651;49.138;8.900;2023-03-22T13:02:22;1.10;;;0.80;;
19036;SDS011;9651;49.138;8.900;2023-03-22T13:06:32;1.65;;;0.80;;
19036;SDS011;9651;49.138;8.900;2023-03-22T13:10:59;1.98;;;0.90;;
19036;SDS011;9651;49.138;8.900;2023-03-22T13:19:33;1.95;;;0.75;;
19036;SDS011;9651;49.138;8.900;2023-03-22T13:23:42;1.35;;;0.80;;
19036;SDS011;9651;49.138;8.900;2023-03-22T13:27:54;0.90;;;0.70;;
19036;SDS011;9651;49.138;8.900;2023-03-22T13:31:58;1.77;;;0.95;;
19036;SDS011;9651;49.138;8.900;2023-03-22T13:36:03;3.22;;;1.30;;
19036;SDS011;9651;49.138;8.900;2023-03-22T13:40:12;0.90;;;0.63;;
19036;SDS011;9651;49.138;8.900;2023-03-22T13:44:19;1.83;;;1.02;;
19036;SDS011;9651;49.138;8.900;2023-03-22T13:48:30;2.05;;;1.00;;
19036;SDS011;9651;49.138;8.900;2023-03-22T13:52:42;3.60;;;1.17;;
19036;SDS011;9651;49.138;8.900;2023-03-22T13:56:53;3.20;;;1.30;;
19036;SDS011;9651;49.138;8.900;2023-03-22T14:00:58;1.67;;;0.98;;
19036;SDS011;9651;49.138;8.900;2023-03-22T14:05:02;1.90;;;1.15;;
19036;SDS011;9651;49.138;8.900;2023-03-22T14:09:15;2.65;;;0.90;;
19036;SDS011;9651;49.138;8.900;2023-03-22T14:13:26;0.88;;;0.80;;
19036;SDS011;9651;49.138;8.900;2023-03-22T14:17:34;2.78;;;0.95;;
19036;SDS011;9651;49.138;8.900;2023-03-22T14:21:42;1.73;;;0.70;;
19036;SDS011;9651;49.138;8.900;2023-03-22T14:25:48;1.05;;;0.80;;
19036;SDS011;9651;49.138;8.900;2023-03-22T14:29:54;1.23;;;0.95;;
19036;SDS011;9651;49.138;8.900;2023-03-22T14:33:59;2.63;;;1.20;;
19036;SDS011;9651;49.138;8.900;2023-03-22T14:38:02;1.95;;;0.80;;
19036;SDS011;9651;49.138;8.900;2023-03-22T14:42:07;3.22;;;1.00;;
19036;SDS011;9651;49.138;8.900;2023-03-22T14:46:17;2.30;;;0.90;;
19036;SDS011;9651;49.138;8.900;2023-03-22T14:50:21;1.17;;;0.93;;
19036;SDS011;9651;49.138;8.900;2023-03-22T14:54:23;6.47;;;1.00;;
19036;SDS011;9651;49.138;8.900;2023-03-22T14:58:31;1.10;;;0.90;;
19036;SDS011;9651;49.138;8.900;2023-03-22T15:02:38;1.52;;;1.10;;
19036;SDS011;9651;49.138;8.900;2023-03-22T15:06:41;2.45;;;0.77;;
19036;SDS011;9651;49.138;8.900;2023-03-22T15:10:47;2.70;;;1.20;;
19036;SDS011;9651;49.138;8.900;2023-03-22T15:14:50;2.05;;;1.05;;
19036;SDS011;9651;49.138;8.900;2023-03-22T15:18:53;1.17;;;0.98;;
19036;SDS011;9651;49.138;8.900;2023-03-22T15:22:56;1.30;;;0.93;;
19036;SDS011;9651;49.138;8.900;2023-03-22T15:27:06;1.10;;;1.00;;
19036;SDS011;9651;49.138;8.900;2023-03-22T15:31:22;1.63;;;1.02;;
19036;SDS011;9651;49.138;8.900;2023-03-22T15:35:27;1.40;;;0.88;;
19036;SDS011;9651;49.138;8.900;2023-03-22T15:39:34;2.88;;;1.10;;
19036;SDS011;9651;49.138;8.900;2023-03-22T15:43:37;2.65;;;1.15;;
19036;SDS011;9651;49.138;8.900;2023-03-22T15:47:42;2.22;;;1.10;;
19036;SDS011;9651;49.138;8.900;2023-03-22T15:51:47;1.25;;;0.90;;
19036;SDS011;9651;49.138;8.900;2023-03-22T15:55:50;2.55;;;1.15;;
19036;SDS011;9651;49.138;8.900;2023-03-22T15:59:53;1.40;;;0.80;;
19036;SDS011;9651;49.138;8.900;2023-03-22T16:04:09;1.80;;;0.98;;
19036;SDS011;9651;49.138;8.900;2023-03-22T16:08:18;2.40;;;0.85;;
19036;SDS011;9651;49.138;8.900;2023-03-22T16:12:20;14.95;;;2.80;;
19036;SDS011;9651;49.138;8.900;2023-03-22T16:16:24;11.32;;;1.80;;
19036;SDS011;9651;49.138;8.900;2023-03-22T16:20:26;5.88;;;1.33;;
19036;SDS011;9651;49.138;8.900;2023-03-22T16:24:34;2.38;;;1.10;;
19036;SDS011;9651;49.138;8.900;2023-03-22T16:28:36;1.88;;;1.02;;
19036;SDS011;9651;49.138;8.900;2023-03-22T16:32:37;1.90;;;0.95;;
19036;SDS011;9651;49.138;8.900;2023-03-22T16:36:40;1.92;;;1.10;;
19036;SDS011;9651;49.138;8.900;2023-03-22T16:40:45;1.67;;;1.13;;
19036;SDS011;9651;49.138;8.900;2023-03-22T16:44:51;10.07;;;1.52;;
19036;SDS011;9651;49.138;8.900;2023-03-22T16:48:54;2.38;;;1.08;;
19036;SDS011;9651;49.138;8.900;2023-03-22T16:52:56;4.82;;;1.00;;
19036;SDS011;9651;49.138;8.900;2023-03-22T16:57:00;1.50;;;1.20;;
19036;SDS011;9651;49.138;8.900;2023-03-22T17:01:02;4.15;;;1.17;;
19036;SDS011;9651;49.138;8.900;2023-03-22T17:05:05;6.88;;;1.50;;
19036;SDS011;9651;49.138;8.900;2023-03-22T17:09:08;7.22;;;1.58;;
19036;SDS011;9651;49.138;8.900;2023-03-22T17:13:12;11.40;;;1.52;;
19036;SDS011;9651;49.138;8.900;2023-03-22T17:17:16;3.15;;;1.85;;
19036;SDS011;9651;49.138;8.900;2023-03-22T17:21:18;2.88;;;1.30;;
19036;SDS011;9651;49.138;8.900;2023-03-22T17:25:21;6.50;;;1.10;;
19036;SDS011;9651;49.138;8.900;2023-03-22T17:29:26;2.58;;;1.10;;
19036;SDS011;9651;49.138;8.900;2023-03-22T17:33:28;3.65;;;1.10;;
19036;SDS011;9651;49.138;8.900;2023-03-22T17:37:31;1.33;;;1.13;;
19036;SDS011;9651;49.138;8.900;2023-03-22T17:41:33;1.92;;;1.33;;
19036;SDS011;9651;49.138;8.900;2023-03-22T17:45:36;3.05;;;1.10;;
19036;SDS011;9651;49.138;8.900;2023-03-22T17:49:38;4.40;;;1.50;;
19036;SDS011;9651;49.138;8.900;2023-03-22T17:53:40;3.78;;;1.52;;
19036;SDS011;9651;49.138;8.900;2023-03-22T17:57:43;9.27;;;1.60;;
19036;SDS011;9651;49.138;8.900;2023-03-22T18:01:46;5.18;;;1.50;;
19036;SDS011;9651;49.138;8.900;2023-03-22T18:05:49;3.60;;;1.80;;
19036;SDS011;9651;49.138;8.900;2023-03-22T18:09:50;4.25;;;1.90;;
19036;SDS011;9651;49.138;8.900;2023-03-22T18:13:52;3.45;;;1.67;;
19036;SDS011;9651;49.138;8.900;2023-03-22T18:17:55;3.35;;;1.45;;
19036;SDS011;9651;49.138;8.900;2023-03-22T18:21:58;5.85;;;1.63;;
19036;SDS011;9651;49.138;8.900;2023-03-22T18:26:00;4.07;;;1.55;;
19036;SDS011;9651;49.138;8.900;2023-03-22T18:30:04;5.38;;;2.03;;
19036;SDS011;9651;49.138;8.900;2023-03-22T18:34:09;9.27;;;3.53;;
19036;SDS011;9651;49.138;8.900;2023-03-22T18:38:11;6.55;;;2.90;;
19036;SDS011;9651;49.138;8.900;2023-03-22T18:42:12;8.10;;;2.75;;
19036;SDS011;9651;49.138;8.900;2023-03-22T18:46:15;6.78;;;2.33;;
19036;SDS011;9651;49.138;8.900;2023-03-22T18:50:19;3.33;;;2.13;;
19036;SDS011;9651;49.138;8.900;2023-03-22T18:54:21;7.20;;;1.45;;
19036;SDS011;9651;49.138;8.900;2023-03-22T18:58:23;1.88;;;1.02;;
19036;SDS011;9651;49.138;8.900;2023-03-22T19:02:25;4.85;;;1.83;;
19036;SDS011;9651;49.138;8.900;2023-03-22T19:06:28;3.47;;;1.73;;
19036;SDS011;9651;49.138;8.900;2023-03-22T19:10:31;2.35;;;1.25;;
19036;SDS011;9651;49.138;8.900;2023-03-22T19:14:33;1.60;;;1.20;;
19036;SDS011;9651;49.138;8.900;2023-03-22T19:18:35;4.15;;;1.30;;
19036;SDS011;9651;49.138;8.900;2023-03-22T19:22:39;1.90;;;1.50;;
19036;SDS011;9651;49.138;8.900;2023-03-22T19:26:41;2.33;;;1.40;;
19036;SDS011;9651;49.138;8.900;2023-03-22T19:30:43;1.85;;;1.45;;
19036;SDS011;9651;49.138;8.900;2023-03-22T19:34:45;1.47;;;1.37;;
19036;SDS011;9651;49.138;8.900;2023-03-22T19:38:49;2.85;;;1.30;;
19036;SDS011;9651;49.138;8.900;2023-03-22T19:42:50;1.93;;;1.20;;
19036;SDS011;9651;49.138;8.900;2023-03-22T19:46:52;2.13;;;1.45;;
19036;SDS011;9651;49.138;8.900;2023-03-22T19:50:55;2.45;;;1.30;;
19036;SDS011;9651;49.138;8.900;2023-03-22T19:54:58;2.35;;;1.50;;
19036;SDS011;9651;49.138;8.900;2023-03-22T19:59:00;3.45;;;1.52;;
19036;SDS011;9651;49.138;8.900;2023-03-22T20:03:03;1.97;;;1.60;;
19036;SDS011;9651;49.138;8.900;2023-03-22T20:07:04;5.65;;;1.67;;
19036;SDS011;9651;49.138;8.900;2023-03-22T20:11:08;4.07;;;2.08;;
19036;SDS011;9651;49.138;8.900;2023-03-22T20:15:10;3.13;;;1.48;;
19036;SDS011;9651;49.138;8.900;2023-03-22T20:19:12;9.48;;;2.00;;
19036;SDS011;9651;49.138;8.900;2023-03-22T20:23:14;5.53;;;2.67;;
19036;SDS011;9651;49.138;8.900;2023-03-22T20:27:17;6.53;;;2.42;;
19036;SDS011;9651;49.138;8.900;2023-03-22T20:31:19;4.88;;;1.80;;
19036;SDS011;9651;49.138;8.900;2023-03-22T20:35:21;5.30;;;1.95;;
19036;SDS011;9651;49.138;8.900;2023-03-22T20:39:23;3.17;;;1.90;;
19036;SDS011;9651;49.138;8.900;2023-03-22T20:43:29;5.57;;;1.80;;
19036;SDS011;9651;49.138;8.900;2023-03-22T20:47:31;3.25;;;2.30;;
19036;SDS011;9651;49.138;8.900;2023-03-22T20:51:33;4.75;;;2.45;;
19036;SDS011;9651;49.138;8.900;2023-03-22T20:55:35;3.78;;;1.85;;
19036;SDS011;9651;49.138;8.900;2023-03-22T20:59:38;3.73;;;2.20;;
19036;SDS011;9651;49.138;8.900;2023-03-22T21:03:40;3.20;;;2.53;;
19036;SDS011;9651;49.138;8.900;2023-03-22T21:07:43;7.00;;;2.67;;
19036;SDS011;9651;49.138;8.900;2023-03-22T21:11:45;5.03;;;2.50;;
19036;SDS011;9651;49.138;8.900;2023-03-22T21:15:48;5.03;;;2.67;;
19036;SDS011;9651;49.138;8.900;2023-03-22T21:19:50;4.60;;;3.00;;
19036;SDS011;9651;49.138;8.900;2023-03-22T21:23:52;4.03;;;2.88;;
19036;SDS011;9651;49.138;8.900;2023-03-22T21:27:54;3.10;;;2.33;;
19036;SDS011;9651;49.138;8.900;2023-03-22T21:31:57;4.40;;;2.50;;
19036;SDS011;9651;49.138;8.900;2023-03-22T21:36:00;3.27;;;2.50;;
19036;SDS011;9651;49.138;8.900;2023-03-22T21:40:03;4.47;;;2.37;;
19036;SDS011;9651;49.138;8.900;2023-03-22T21:44:07;3.13;;;2.38;;
19036;SDS011;9651;49.138;8.900;2023-03-22T21:48:11;5.28;;;2.40;;
19036;SDS011;9651;49.138;8.900;2023-03-22T21:52:14;2.78;;;2.15;;
19036;SDS011;9651;49.138;8.900;2023-03-22T21:56:16;2.38;;;2.10;;
19036;SDS011;9651;49.138;8.900;2023-03-22T22:00:18;4.40;;;2.40;;
19036;SDS011;9651;49.138;8.900;2023-03-22T22:04:25;3.05;;;2.05;;
19036;SDS011;9651;49.138;8.900;2023-03-22T22:08:29;3.33;;;2.30;;
19036;SDS011;9651;49.138;8.900;2023-03-22T22:12:31;3.97;;;2.87;;
19036;SDS011;9651;49.138;8.900;2023-03-22T22:16:33;3.85;;;2.25;;
19036;SDS011;9651;49.138;8.900;2023-03-22T22:20:38;5.45;;;2.58;;
19036;SDS011;9651;49.138;8.900;2023-03-22T22:24:40;3.70;;;2.50;;
19036;SDS011;9651;49.138;8.900;2023-03-22T22:28:43;4.78;;;2.72;;
19036;SDS011;9651;49.138;8.900;2023-03-22T22:32:45;4.68;;;2.75;;
19036;SDS011;9651;49.138;8.900;2023-03-22T22:36:48;2.65;;;1.92;;
19036;SDS011;9651;49.138;8.900;2023-03-22T22:40:53;2.77;;;2.00;;
19036;SDS011;9651;49.138;8.900;2023-03-22T22:44:55;2.57;;;1.60;;
19036;SDS011;9651;49.138;8.900;2023-03-22T22:48:58;3.70;;;1.60;;
19036;SDS011;9651;49.138;8.900;2023-03-22T22:53:02;2.33;;;1.43;;
19036;SDS011;9651;49.138;8.900;2023-03-22T22:57:04;3.33;;;1.73;;
19036;SDS011;9651;49.138;8.900;2023-03-22T23:01:06;2.03;;;1.50;;
19036;SDS011;9651;49.138;8.900;2023-03-22T23:05:10;1.53;;;1.00;;
19036;SDS011;9651;49.138;8.900;2023-03-22T23:09:14;1.20;;;0.93;;
19036;SDS011;9651;49.138;8.900;2023-03-22T23:13:20;2.03;;;1.20;;
19036;SDS011;9651;49.138;8.900;2023-03-22T23:17:22;2.58;;;1.20;;
19036;SDS011;9651;49.138;8.900;2023-03-22T23:21:25;1.38;;;0.98;;
19036;SDS011;9651;49.138;8.900;2023-03-22T23:25:34;0.73;;;0.73;;
19036;SDS011;9651;49.138;8.900;2023-03-22T23:29:37;0.75;;;0.60;;
19036;SDS011;9651;49.138;8.900;2023-03-22T23:33:39;2.85;;;0.85;;
19036;SDS011;9651;49.138;8.900;2023-03-22T23:37:41;2.42;;;1.02;;
19036;SDS011;9651;49.138;8.900;2023-03-22T23:41:47;1.73;;;0.95;;
19036;SDS011;9651;49.138;8.900;2023-03-22T23:45:50;1.70;;;0.80;;
19036;SDS011;9651;49.138;8.900;2023-03-22T23:49:52;2.53;;;0.88;;
19036;SDS011;9651;49.138;8.900;2023-03-22T23:53:54;1.13;;;0.90;;
19036;SDS011;9651;49.138;8.900;2023-03-22T23:57:58;1.50;;;0.80;;
